sensor_id;sensor_type;location;lat;lon;timestamp;temperature;humidity
21419;DHT22;10870;51.384;10.316;2022-07-06T06:23:14;15.40;23.30
21419;DHT22;10870;51.384;10.316;2022-07-06T06:25:21;15.30;21.10
21419;DHT22;10870;51.384;10.316;2022-07-06T06:27:28;15.40;44.50
21419;DHT22;10870;51.384;10.316;2022-07-06T06:29:29;15.50;72.10
21419;DHT22;10870;51.384;10.316;2022-07-06T06:37:47;15.80;1.00
21419;DHT22;10870;51.384;10.316;2022-07-06T06:39:49;15.80;1.00
21419;DHT22;10870;51.384;10.316;2022-07-06T06:41:51;16.00;1.00
21419;DHT22;10870;51.384;10.316;2022-07-06T06:43:51;16.00;1.00
21419;DHT22;10870;51.384;10.316;2022-07-06T06:45:54;16.10;1.00
21419;DHT22;10870;51.384;10.316;2022-07-06T06:47:58;15.90;1.00
21419;DHT22;10870;51.384;10.316;2022-07-06T06:50:01;16.00;1.00
21419;DHT22;10870;51.384;10.316;2022-07-06T06:52:09;15.80;1.00
21419;DHT22;10870;51.384;10.316;2022-07-06T06:54:10;15.80;1.00
21419;DHT22;10870;51.384;10.316;2022-07-06T06:56:13;15.90;1.00
21419;DHT22;10870;51.384;10.316;2022-07-06T06:58:14;15.70;1.00
21419;DHT22;10870;51.384;10.316;2022-07-06T07:00:23;15.80;1.00
21419;DHT22;10870;51.384;10.316;2022-07-06T07:02:28;15.90;1.00
21419;DHT22;10870;51.384;10.316;2022-07-06T07:04:52;16.10;1.00
21419;DHT22;10870;51.384;10.316;2022-07-06T07:09:21;15.60;1.00
21419;DHT22;10870;51.384;10.316;2022-07-06T07:11:56;15.60;1.00
21419;DHT22;10870;51.384;10.316;2022-07-06T07:21:13;15.50;1.00
21419;DHT22;10870;51.384;10.316;2022-07-06T07:43:30;15.70;1.00
21419;DHT22;10870;51.384;10.316;2022-07-06T07:45:45;15.80;1.00
21419;DHT22;10870;51.384;10.316;2022-07-06T07:47:48;15.90;1.00
21419;DHT22;10870;51.384;10.316;2022-07-06T07:49:59;15.80;1.00
21419;DHT22;10870;51.384;10.316;2022-07-06T07:52:09;16.10;1.00
21419;DHT22;10870;51.384;10.316;2022-07-06T07:54:18;15.70;1.00
21419;DHT22;10870;51.384;10.316;2022-07-06T07:56:31;16.10;1.00
21419;DHT22;10870;51.384;10.316;2022-07-06T07:58:39;16.30;1.00
21419;DHT22;10870;51.384;10.316;2022-07-06T08:00:49;16.10;99.90
21419;DHT22;10870;51.384;10.316;2022-07-06T08:02:52;16.10;99.90
21419;DHT22;10870;51.384;10.316;2022-07-06T08:05:04;16.10;99.90
21419;DHT22;10870;51.384;10.316;2022-07-06T08:07:11;16.40;99.90
21419;DHT22;10870;51.384;10.316;2022-07-06T08:09:25;16.20;1.00
21419;DHT22;10870;51.384;10.316;2022-07-06T08:11:48;16.20;99.90
21419;DHT22;10870;51.384;10.316;2022-07-06T08:13:58;16.20;1.00
21419;DHT22;10870;51.384;10.316;2022-07-06T08:16:00;16.70;89.80
21419;DHT22;10870;51.384;10.316;2022-07-06T08:18:04;16.30;59.80
21419;DHT22;10870;51.384;10.316;2022-07-06T08:20:35;16.40;1.00
21419;DHT22;10870;51.384;10.316;2022-07-06T08:22:42;16.20;99.90
21419;DHT22;10870;51.384;10.316;2022-07-06T08:24:49;16.20;1.00
21419;DHT22;10870;51.384;10.316;2022-07-06T08:26:58;16.50;1.00
21419;DHT22;10870;51.384;10.316;2022-07-06T08:29:04;16.60;1.00
21419;DHT22;10870;51.384;10.316;2022-07-06T08:31:08;16.50;99.90
21419;DHT22;10870;51.384;10.316;2022-07-06T08:33:19;16.50;1.00
21419;DHT22;10870;51.384;10.316;2022-07-06T08:35:23;16.60;83.20
21419;DHT22;10870;51.384;10.316;2022-07-06T08:37:25;16.40;1.00
21419;DHT22;10870;51.384;10.316;2022-07-06T08:39:27;16.40;51.20
21419;DHT22;10870;51.384;10.316;2022-07-06T08:41:30;16.20;1.00
21419;DHT22;10870;51.384;10.316;2022-07-06T08:43:31;16.60;1.00
21419;DHT22;10870;51.384;10.316;2022-07-06T08:45:34;16.00;99.90
21419;DHT22;10870;51.384;10.316;2022-07-06T08:47:36;16.00;1.00
21419;DHT22;10870;51.384;10.316;2022-07-06T08:49:39;16.10;2.30
21419;DHT22;10870;51.384;10.316;2022-07-06T08:51:42;16.40;1.00
21419;DHT22;10870;51.384;10.316;2022-07-06T08:53:44;16.60;99.90
21419;DHT22;10870;51.384;10.316;2022-07-06T08:55:46;16.70;88.70
21419;DHT22;10870;51.384;10.316;2022-07-06T08:57:50;16.70;99.90
21419;DHT22;10870;51.384;10.316;2022-07-06T08:59:51;16.70;99.90
21419;DHT22;10870;51.384;10.316;2022-07-06T09:01:52;16.80;1.00
21419;DHT22;10870;51.384;10.316;2022-07-06T09:03:54;16.60;1.00
21419;DHT22;10870;51.384;10.316;2022-07-06T09:06:01;16.50;99.90
21419;DHT22;10870;51.384;10.316;2022-07-06T09:08:02;16.50;99.90
21419;DHT22;10870;51.384;10.316;2022-07-06T09:10:04;16.60;99.90
21419;DHT22;10870;51.384;10.316;2022-07-06T09:12:11;16.60;99.90
21419;DHT22;10870;51.384;10.316;2022-07-06T09:14:14;16.60;99.90
21419;DHT22;10870;51.384;10.316;2022-07-06T09:16:15;16.90;99.90
21419;DHT22;10870;51.384;10.316;2022-07-06T09:18:18;17.00;99.90
21419;DHT22;10870;51.384;10.316;2022-07-06T23:27:34;14.30;99.90
21419;DHT22;10870;51.384;10.316;2022-07-06T23:30:02;14.30;99.90
21419;DHT22;10870;51.384;10.316;2022-07-06T23:32:16;14.30;99.90
21419;DHT22;10870;51.384;10.316;2022-07-06T23:34:36;14.30;99.90
21419;DHT22;10870;51.384;10.316;2022-07-06T23:37:02;14.20;99.90
21419;DHT22;10870;51.384;10.316;2022-07-06T23:41:56;14.30;99.90
21419;DHT22;10870;51.384;10.316;2022-07-06T23:44:30;14.30;99.90
21419;DHT22;10870;51.384;10.316;2022-07-06T23:46:57;14.30;99.90
21419;DHT22;10870;51.384;10.316;2022-07-06T23:49:09;14.80;99.90
21419;DHT22;10870;51.384;10.316;2022-07-06T23:51:46;14.30;99.90
21419;DHT22;10870;51.384;10.316;2022-07-06T23:54:20;14.10;99.90
21419;DHT22;10870;51.384;10.316;2022-07-06T23:56:49;14.40;99.90
21419;DHT22;10870;51.384;10.316;2022-07-06T23:59:29;14.40;99.90
